Felicity, Ohio
Current Conditions -  °F | °C
As of 8:44 PM on Thursday 27 Nov 2014 (Local Time) from KLUK Reporting Station
Overcast Overcast  
Wind Chill: 21°   Ceiling: 3000
Heat Index: 30°   Visibility: 10mi
Dew Point: 19°   Wind: 12mph
Humidity: 64%   Direction: 300°WNW
Pressure: 30.41"   Gusts: NA
Location:  38.84°N, 84.1°W
Report Text: KLUK 280144Z 30010KT 10SM BKN030 OVC043 M01/M07 A3041 RMK AO2 T10111072
Loading
Personal Weather Stations






























Interactive Weather Map New forecast layout! Learn more

10-Day Weather Forecast

Advertisements
Track Severe Weather on mobile